This is the latest recevied weather packets stored in our database for station/object KE5VT. If no packets are shown the sender has not sent any weather packets the latest 10 day(s).
| Time | Temp. | Humidity | Pressure | Rain* | Wind** | Luminosity | Snow |
|---|---|---|---|---|---|---|---|
| 1788123998 | 28.89° C | 73% | 1016.5 hPa | 0 mm | - | 71 W/m² | - |
| 1788123697 | 28.89° C | 73% | 1016.5 hPa | 0 mm | - | 62 W/m² | - |
| 1788123394 | 28.89° C | 70% | 1016.5 hPa | 0 mm | - | 112 W/m² | - |
| 1788123090 | 28.33° C | 72% | 1016.6 hPa | 0 mm | - | 88 W/m² | - |
| 1788122790 | 28.33° C | 73% | 1016.7 hPa | 0 mm | - | 75 W/m² | - |
| 1788122488 | 28.89° C | 72% | 1016.6 hPa | 0 mm | - | 63 W/m² | - |
| 1788122185 | 28.89° C | 72% | 1016.7 hPa | 0 mm | - | 148 W/m² | - |
| 1788121885 | 28.89° C | 72% | 1016.8 hPa | 0 mm | - | 415 W/m² | - |
| 1788121585 | 28.89° C | 73% | 1016.5 hPa | 0 mm | - | 397 W/m² | - |
| 1788121280 | 28.89° C | 73% | 1016.7 hPa | 0 mm | - | 440 W/m² | - |
| 1788120979 | 28.33° C | 72% | 1016.8 hPa | 0 mm | - | 151 W/m² | - |
| 1788120675 | 28.89° C | 72% | 1016.8 hPa | 0 mm | - | 78 W/m² | - |
| 1788120370 | 28.33° C | 71% | 1016.9 hPa | 0 mm | - | 73 W/m² | - |
| 1788120069 | 27.78° C | 73% | 1017 hPa | 0 mm | - | 64 W/m² | - |
| 1788119765 | 27.78° C | 74% | 1017 hPa | 0 mm | - | 67 W/m² | - |
| 1788119462 | 28.89° C | 72% | 1017.3 hPa | 0 mm | - | 76 W/m² | - |
| 1788119157 | 28.89° C | 72% | 1017.1 hPa | 0 mm | - | 99 W/m² | - |
| 1788118857 | 29.44° C | 71% | 1017.4 hPa | 0 mm | - | 135 W/m² | - |
| 1788118556 | 28.89° C | 72% | 1017.4 hPa | 0 mm | - | 423 W/m² | - |
| 1788118251 | 28.33° C | 74% | 1017.5 hPa | 0 mm | - | 575 W/m² | - |
| 1788117947 | 28.89° C | 74% | 1017.5 hPa | 0 mm | - | 82 W/m² | - |
| 1788117647 | 28.89° C | 73% | 1017.7 hPa | 0 mm | - | 478 W/m² | - |
| 1788117342 | 29.44° C | 72% | 1017.8 hPa | 0 mm | - | 181 W/m² | - |
| 1788117037 | 28.89° C | 72% | 1017.9 hPa | 0 mm | - | 127 W/m² | - |
| 1788116733 | 27.78° C | 74% | 1017.9 hPa | 0 mm | - | 198 W/m² | - |
* Rain latest hour (hover to see other rain measurements)
** Current wind speed in m/s (hover to see current wind gust speed)